sensor_id;sensor_type;location;lat;lon;timestamp;P1;durP1;ratioP1;P2;durP2;ratioP2
77625;SDS011;66794;43.764;10.436;2024-01-25T00:00:45;66.18;;;44.80;;
77625;SDS011;66794;43.764;10.436;2024-01-25T00:03:31;61.90;;;44.13;;
77625;SDS011;66794;43.764;10.436;2024-01-25T00:06:16;64.18;;;45.35;;
77625;SDS011;66794;43.764;10.436;2024-01-25T00:09:02;67.72;;;46.20;;
77625;SDS011;66794;43.764;10.436;2024-01-25T00:11:49;67.43;;;45.67;;
77625;SDS011;66794;43.764;10.436;2024-01-25T00:14:35;60.78;;;43.50;;
77625;SDS011;66794;43.764;10.436;2024-01-25T00:17:20;65.65;;;45.60;;
77625;SDS011;66794;43.764;10.436;2024-01-25T00:20:08;59.75;;;43.35;;
77625;SDS011;66794;43.764;10.436;2024-01-25T00:22:54;63.13;;;43.10;;
77625;SDS011;66794;43.764;10.436;2024-01-25T00:25:40;58.72;;;41.05;;
77625;SDS011;66794;43.764;10.436;2024-01-25T00:28:25;61.55;;;42.38;;
77625;SDS011;66794;43.764;10.436;2024-01-25T00:31:11;58.53;;;43.65;;
77625;SDS011;66794;43.764;10.436;2024-01-25T00:33:57;59.88;;;42.80;;
77625;SDS011;66794;43.764;10.436;2024-01-25T00:36:43;60.45;;;42.90;;
77625;SDS011;66794;43.764;10.436;2024-01-25T00:39:28;58.88;;;43.10;;
77625;SDS011;66794;43.764;10.436;2024-01-25T00:42:14;61.83;;;43.40;;
77625;SDS011;66794;43.764;10.436;2024-01-25T00:45:00;59.75;;;41.97;;
77625;SDS011;66794;43.764;10.436;2024-01-25T00:47:46;64.50;;;43.00;;
77625;SDS011;66794;43.764;10.436;2024-01-25T00:50:32;64.60;;;44.17;;
77625;SDS011;66794;43.764;10.436;2024-01-25T00:53:17;64.35;;;42.97;;
77625;SDS011;66794;43.764;10.436;2024-01-25T00:56:03;61.38;;;41.17;;
77625;SDS011;66794;43.764;10.436;2024-01-25T00:58:49;61.15;;;41.90;;
77625;SDS011;66794;43.764;10.436;2024-01-25T01:01:35;65.30;;;43.28;;
77625;SDS011;66794;43.764;10.436;2024-01-25T01:04:20;60.78;;;42.53;;
77625;SDS011;66794;43.764;10.436;2024-01-25T01:07:06;61.10;;;43.53;;
77625;SDS011;66794;43.764;10.436;2024-01-25T01:09:52;63.63;;;43.80;;
77625;SDS011;66794;43.764;10.436;2024-01-25T01:12:38;55.22;;;41.50;;
77625;SDS011;66794;43.764;10.436;2024-01-25T01:15:23;59.30;;;40.33;;
77625;SDS011;66794;43.764;10.436;2024-01-25T01:18:09;65.45;;;42.63;;
77625;SDS011;66794;43.764;10.436;2024-01-25T01:20:54;57.97;;;42.25;;
77625;SDS011;66794;43.764;10.436;2024-01-25T01:23:40;61.47;;;42.25;;
77625;SDS011;66794;43.764;10.436;2024-01-25T01:26:25;61.47;;;41.60;;
77625;SDS011;66794;43.764;10.436;2024-01-25T01:29:11;63.15;;;42.22;;
77625;SDS011;66794;43.764;10.436;2024-01-25T01:31:57;58.42;;;42.88;;
77625;SDS011;66794;43.764;10.436;2024-01-25T01:34:43;62.53;;;42.50;;
77625;SDS011;66794;43.764;10.436;2024-01-25T01:37:28;57.67;;;41.28;;
77625;SDS011;66794;43.764;10.436;2024-01-25T01:40:14;57.75;;;41.58;;
77625;SDS011;66794;43.764;10.436;2024-01-25T01:43:00;57.97;;;41.30;;
77625;SDS011;66794;43.764;10.436;2024-01-25T01:45:46;59.58;;;41.78;;
77625;SDS011;66794;43.764;10.436;2024-01-25T01:48:32;58.95;;;40.95;;
77625;SDS011;66794;43.764;10.436;2024-01-25T01:51:17;59.40;;;41.95;;
77625;SDS011;66794;43.764;10.436;2024-01-25T01:54:05;65.03;;;44.13;;
77625;SDS011;66794;43.764;10.436;2024-01-25T01:56:51;60.50;;;43.00;;
77625;SDS011;66794;43.764;10.436;2024-01-25T01:59:37;66.13;;;43.50;;
77625;SDS011;66794;43.764;10.436;2024-01-25T02:02:23;63.72;;;43.75;;
77625;SDS011;66794;43.764;10.436;2024-01-25T02:05:09;66.38;;;43.05;;
77625;SDS011;66794;43.764;10.436;2024-01-25T02:07:55;61.55;;;42.47;;
77625;SDS011;66794;43.764;10.436;2024-01-25T02:10:41;61.05;;;42.25;;
77625;SDS011;66794;43.764;10.436;2024-01-25T02:13:28;62.63;;;43.88;;
77625;SDS011;66794;43.764;10.436;2024-01-25T02:16:14;59.95;;;42.22;;
77625;SDS011;66794;43.764;10.436;2024-01-25T02:19:03;68.60;;;43.67;;
77625;SDS011;66794;43.764;10.436;2024-01-25T02:21:49;58.42;;;42.83;;
77625;SDS011;66794;43.764;10.436;2024-01-25T02:24:35;64.25;;;44.03;;
77625;SDS011;66794;43.764;10.436;2024-01-25T02:27:20;66.25;;;45.83;;
77625;SDS011;66794;43.764;10.436;2024-01-25T02:30:06;71.50;;;44.67;;
77625;SDS011;66794;43.764;10.436;2024-01-25T02:32:52;61.22;;;41.65;;
77625;SDS011;66794;43.764;10.436;2024-01-25T02:35:38;60.70;;;39.55;;
77625;SDS011;66794;43.764;10.436;2024-01-25T02:38:23;56.25;;;37.92;;
77625;SDS011;66794;43.764;10.436;2024-01-25T02:41:09;53.88;;;37.03;;
77625;SDS011;66794;43.764;10.436;2024-01-25T02:43:55;52.42;;;37.17;;
77625;SDS011;66794;43.764;10.436;2024-01-25T02:46:40;50.15;;;35.63;;
77625;SDS011;66794;43.764;10.436;2024-01-25T02:49:26;49.70;;;36.78;;
77625;SDS011;66794;43.764;10.436;2024-01-25T02:52:11;54.47;;;36.55;;
77625;SDS011;66794;43.764;10.436;2024-01-25T02:54:57;48.53;;;34.50;;
77625;SDS011;66794;43.764;10.436;2024-01-25T02:57:43;50.28;;;36.28;;
77625;SDS011;66794;43.764;10.436;2024-01-25T03:00:28;51.35;;;36.70;;
77625;SDS011;66794;43.764;10.436;2024-01-25T03:03:14;50.08;;;35.38;;
77625;SDS011;66794;43.764;10.436;2024-01-25T03:05:59;50.65;;;34.38;;
77625;SDS011;66794;43.764;10.436;2024-01-25T03:08:45;46.97;;;32.83;;
77625;SDS011;66794;43.764;10.436;2024-01-25T03:11:31;48.78;;;33.38;;
77625;SDS011;66794;43.764;10.436;2024-01-25T03:14:17;50.22;;;33.33;;
77625;SDS011;66794;43.764;10.436;2024-01-25T03:17:02;49.42;;;33.70;;
77625;SDS011;66794;43.764;10.436;2024-01-25T03:19:48;43.88;;;31.40;;
77625;SDS011;66794;43.764;10.436;2024-01-25T03:22:34;44.67;;;31.48;;
77625;SDS011;66794;43.764;10.436;2024-01-25T03:25:20;45.08;;;30.55;;
77625;SDS011;66794;43.764;10.436;2024-01-25T03:28:06;47.22;;;29.77;;
77625;SDS011;66794;43.764;10.436;2024-01-25T03:30:51;44.45;;;29.17;;
77625;SDS011;66794;43.764;10.436;2024-01-25T03:33:37;38.03;;;29.23;;
77625;SDS011;66794;43.764;10.436;2024-01-25T03:36:23;42.13;;;28.35;;
77625;SDS011;66794;43.764;10.436;2024-01-25T03:39:08;39.30;;;27.08;;
77625;SDS011;66794;43.764;10.436;2024-01-25T03:41:54;38.53;;;27.45;;
77625;SDS011;66794;43.764;10.436;2024-01-25T03:44:39;40.97;;;26.77;;
77625;SDS011;66794;43.764;10.436;2024-01-25T03:47:27;35.88;;;26.52;;
77625;SDS011;66794;43.764;10.436;2024-01-25T03:50:13;39.00;;;27.15;;
77625;SDS011;66794;43.764;10.436;2024-01-25T03:52:58;36.03;;;27.33;;
77625;SDS011;66794;43.764;10.436;2024-01-25T03:55:44;39.55;;;27.45;;
77625;SDS011;66794;43.764;10.436;2024-01-25T03:58:30;37.75;;;27.10;;
77625;SDS011;66794;43.764;10.436;2024-01-25T04:01:15;37.70;;;25.80;;
77625;SDS011;66794;43.764;10.436;2024-01-25T04:04:01;38.80;;;25.90;;
77625;SDS011;66794;43.764;10.436;2024-01-25T04:06:46;37.75;;;26.50;;
77625;SDS011;66794;43.764;10.436;2024-01-25T04:09:32;36.92;;;26.05;;
77625;SDS011;66794;43.764;10.436;2024-01-25T04:12:18;40.83;;;27.42;;
77625;SDS011;66794;43.764;10.436;2024-01-25T04:15:04;38.67;;;26.52;;
77625;SDS011;66794;43.764;10.436;2024-01-25T04:17:49;40.00;;;27.17;;
77625;SDS011;66794;43.764;10.436;2024-01-25T04:20:35;42.45;;;27.70;;
77625;SDS011;66794;43.764;10.436;2024-01-25T04:23:21;45.00;;;29.20;;
77625;SDS011;66794;43.764;10.436;2024-01-25T04:26:06;39.80;;;27.27;;
77625;SDS011;66794;43.764;10.436;2024-01-25T04:28:52;42.70;;;28.80;;
77625;SDS011;66794;43.764;10.436;2024-01-25T04:31:44;42.50;;;29.25;;
77625;SDS011;66794;43.764;10.436;2024-01-25T04:34:33;39.50;;;27.35;;
77625;SDS011;66794;43.764;10.436;2024-01-25T04:37:19;39.88;;;27.88;;
77625;SDS011;66794;43.764;10.436;2024-01-25T04:40:05;36.78;;;26.08;;
77625;SDS011;66794;43.764;10.436;2024-01-25T04:42:51;36.72;;;24.98;;
77625;SDS011;66794;43.764;10.436;2024-01-25T04:45:37;39.40;;;25.60;;
77625;SDS011;66794;43.764;10.436;2024-01-25T04:48:23;32.13;;;24.23;;
77625;SDS011;66794;43.764;10.436;2024-01-25T04:51:14;39.47;;;24.63;;
77625;SDS011;66794;43.764;10.436;2024-01-25T04:54:00;35.45;;;23.10;;
77625;SDS011;66794;43.764;10.436;2024-01-25T04:56:45;31.63;;;22.90;;
77625;SDS011;66794;43.764;10.436;2024-01-25T04:59:31;36.42;;;22.52;;
77625;SDS011;66794;43.764;10.436;2024-01-25T05:02:16;33.35;;;21.73;;
77625;SDS011;66794;43.764;10.436;2024-01-25T05:05:02;32.22;;;21.48;;
77625;SDS011;66794;43.764;10.436;2024-01-25T05:07:48;37.53;;;21.73;;
77625;SDS011;66794;43.764;10.436;2024-01-25T05:10:33;32.28;;;21.90;;
77625;SDS011;66794;43.764;10.436;2024-01-25T05:13:19;36.63;;;22.38;;
77625;SDS011;66794;43.764;10.436;2024-01-25T05:16:04;31.38;;;21.90;;
77625;SDS011;66794;43.764;10.436;2024-01-25T05:18:50;39.35;;;22.65;;
77625;SDS011;66794;43.764;10.436;2024-01-25T05:21:36;32.83;;;21.45;;
77625;SDS011;66794;43.764;10.436;2024-01-25T05:24:21;39.45;;;21.08;;
77625;SDS011;66794;43.764;10.436;2024-01-25T05:27:07;35.00;;;21.77;;
77625;SDS011;66794;43.764;10.436;2024-01-25T05:29:52;34.85;;;21.73;;
77625;SDS011;66794;43.764;10.436;2024-01-25T05:32:38;31.40;;;21.40;;
77625;SDS011;66794;43.764;10.436;2024-01-25T05:35:24;33.70;;;21.40;;
77625;SDS011;66794;43.764;10.436;2024-01-25T05:38:09;32.28;;;20.55;;
77625;SDS011;66794;43.764;10.436;2024-01-25T05:40:55;36.78;;;20.98;;
77625;SDS011;66794;43.764;10.436;2024-01-25T05:43:40;30.38;;;20.92;;
77625;SDS011;66794;43.764;10.436;2024-01-25T05:46:26;34.90;;;20.90;;
77625;SDS011;66794;43.764;10.436;2024-01-25T05:49:12;33.03;;;20.67;;
77625;SDS011;66794;43.764;10.436;2024-01-25T05:51:57;42.05;;;22.13;;
77625;SDS011;66794;43.764;10.436;2024-01-25T05:54:43;38.22;;;20.55;;
77625;SDS011;66794;43.764;10.436;2024-01-25T05:57:29;33.72;;;22.63;;
77625;SDS011;66794;43.764;10.436;2024-01-25T06:00:14;40.42;;;22.33;;
77625;SDS011;66794;43.764;10.436;2024-01-25T06:03:01;33.30;;;22.67;;
77625;SDS011;66794;43.764;10.436;2024-01-25T06:05:46;33.65;;;22.40;;
77625;SDS011;66794;43.764;10.436;2024-01-25T06:08:32;38.67;;;22.98;;
77625;SDS011;66794;43.764;10.436;2024-01-25T06:11:18;37.88;;;23.75;;
77625;SDS011;66794;43.764;10.436;2024-01-25T06:14:04;36.53;;;23.73;;
77625;SDS011;66794;43.764;10.436;2024-01-25T06:16:51;46.40;;;25.98;;
77625;SDS011;66794;43.764;10.436;2024-01-25T06:19:36;38.50;;;23.75;;
77625;SDS011;66794;43.764;10.436;2024-01-25T06:22:22;45.60;;;24.73;;
77625;SDS011;66794;43.764;10.436;2024-01-25T06:25:07;41.78;;;23.58;;
77625;SDS011;66794;43.764;10.436;2024-01-25T06:27:54;43.03;;;24.30;;
77625;SDS011;66794;43.764;10.436;2024-01-25T06:30:40;42.38;;;22.27;;
77625;SDS011;66794;43.764;10.436;2024-01-25T06:33:25;52.22;;;23.58;;
77625;SDS011;66794;43.764;10.436;2024-01-25T06:36:11;45.00;;;23.23;;
77625;SDS011;66794;43.764;10.436;2024-01-25T06:38:56;40.80;;;22.30;;
77625;SDS011;66794;43.764;10.436;2024-01-25T06:41:42;44.67;;;23.00;;
77625;SDS011;66794;43.764;10.436;2024-01-25T06:44:28;37.97;;;23.50;;
77625;SDS011;66794;43.764;10.436;2024-01-25T06:47:13;42.40;;;23.13;;
77625;SDS011;66794;43.764;10.436;2024-01-25T06:49:59;42.00;;;23.65;;
77625;SDS011;66794;43.764;10.436;2024-01-25T06:52:45;39.03;;;22.73;;
77625;SDS011;66794;43.764;10.436;2024-01-25T06:55:30;38.97;;;23.35;;
77625;SDS011;66794;43.764;10.436;2024-01-25T06:58:16;42.25;;;24.08;;
77625;SDS011;66794;43.764;10.436;2024-01-25T07:01:02;43.28;;;24.45;;
77625;SDS011;66794;43.764;10.436;2024-01-25T07:03:49;40.92;;;23.10;;
77625;SDS011;66794;43.764;10.436;2024-01-25T07:06:35;40.50;;;24.88;;
77625;SDS011;66794;43.764;10.436;2024-01-25T07:09:21;42.97;;;25.70;;
77625;SDS011;66794;43.764;10.436;2024-01-25T07:12:07;37.30;;;24.42;;
77625;SDS011;66794;43.764;10.436;2024-01-25T07:14:53;48.88;;;26.80;;
77625;SDS011;66794;43.764;10.436;2024-01-25T07:17:39;42.45;;;28.52;;
77625;SDS011;66794;43.764;10.436;2024-01-25T07:20:25;44.42;;;28.38;;
77625;SDS011;66794;43.764;10.436;2024-01-25T07:23:10;48.00;;;29.92;;
77625;SDS011;66794;43.764;10.436;2024-01-25T07:25:56;53.70;;;31.00;;
77625;SDS011;66794;43.764;10.436;2024-01-25T07:28:42;55.28;;;33.28;;
77625;SDS011;66794;43.764;10.436;2024-01-25T07:31:28;57.38;;;32.67;;
77625;SDS011;66794;43.764;10.436;2024-01-25T07:34:13;53.65;;;34.58;;
77625;SDS011;66794;43.764;10.436;2024-01-25T07:36:59;67.68;;;38.63;;
77625;SDS011;66794;43.764;10.436;2024-01-25T07:39:46;60.85;;;35.45;;
77625;SDS011;66794;43.764;10.436;2024-01-25T07:42:31;54.67;;;33.78;;
77625;SDS011;66794;43.764;10.436;2024-01-25T07:45:17;52.03;;;34.30;;
77625;SDS011;66794;43.764;10.436;2024-01-25T07:48:02;57.53;;;37.40;;
77625;SDS011;66794;43.764;10.436;2024-01-25T07:50:48;56.58;;;38.22;;
77625;SDS011;66794;43.764;10.436;2024-01-25T07:53:34;58.22;;;36.80;;
77625;SDS011;66794;43.764;10.436;2024-01-25T07:56:19;54.75;;;37.22;;
77625;SDS011;66794;43.764;10.436;2024-01-25T07:59:07;57.90;;;37.22;;
77625;SDS011;66794;43.764;10.436;2024-01-25T08:01:52;57.03;;;38.35;;
77625;SDS011;66794;43.764;10.436;2024-01-25T08:04:38;56.78;;;37.53;;
77625;SDS011;66794;43.764;10.436;2024-01-25T08:07:24;61.97;;;37.03;;
77625;SDS011;66794;43.764;10.436;2024-01-25T08:10:09;57.85;;;36.38;;
77625;SDS011;66794;43.764;10.436;2024-01-25T08:12:55;59.47;;;36.13;;
77625;SDS011;66794;43.764;10.436;2024-01-25T08:15:41;56.58;;;36.25;;
77625;SDS011;66794;43.764;10.436;2024-01-25T08:18:27;57.50;;;33.30;;
77625;SDS011;66794;43.764;10.436;2024-01-25T08:21:15;53.97;;;33.47;;
77625;SDS011;66794;43.764;10.436;2024-01-25T08:24:00;43.08;;;26.90;;
77625;SDS011;66794;43.764;10.436;2024-01-25T08:26:46;40.55;;;26.08;;
77625;SDS011;66794;43.764;10.436;2024-01-25T08:29:32;51.88;;;27.20;;
77625;SDS011;66794;43.764;10.436;2024-01-25T08:32:18;43.60;;;25.98;;
77625;SDS011;66794;43.764;10.436;2024-01-25T08:35:03;46.97;;;26.15;;
77625;SDS011;66794;43.764;10.436;2024-01-25T08:37:49;42.97;;;24.73;;
77625;SDS011;66794;43.764;10.436;2024-01-25T08:40:35;44.25;;;26.60;;
77625;SDS011;66794;43.764;10.436;2024-01-25T08:43:21;43.55;;;26.58;;
77625;SDS011;66794;43.764;10.436;2024-01-25T08:46:07;47.97;;;26.45;;
77625;SDS011;66794;43.764;10.436;2024-01-25T08:48:53;44.20;;;27.17;;
77625;SDS011;66794;43.764;10.436;2024-01-25T08:51:38;39.13;;;25.45;;
77625;SDS011;66794;43.764;10.436;2024-01-25T08:54:24;51.33;;;27.55;;
77625;SDS011;66794;43.764;10.436;2024-01-25T08:57:10;47.47;;;28.02;;
77625;SDS011;66794;43.764;10.436;2024-01-25T08:59:55;47.17;;;29.02;;
77625;SDS011;66794;43.764;10.436;2024-01-25T09:02:43;44.38;;;28.17;;
77625;SDS011;66794;43.764;10.436;2024-01-25T09:05:29;49.47;;;30.83;;
77625;SDS011;66794;43.764;10.436;2024-01-25T09:08:16;53.22;;;30.67;;
77625;SDS011;66794;43.764;10.436;2024-01-25T09:11:02;50.65;;;29.98;;
77625;SDS011;66794;43.764;10.436;2024-01-25T09:13:47;49.75;;;34.33;;
77625;SDS011;66794;43.764;10.436;2024-01-25T09:16:33;59.58;;;37.63;;
77625;SDS011;66794;43.764;10.436;2024-01-25T09:19:19;57.30;;;37.45;;
77625;SDS011;66794;43.764;10.436;2024-01-25T09:22:04;65.97;;;39.17;;
77625;SDS011;66794;43.764;10.436;2024-01-25T09:24:53;57.95;;;37.80;;
77625;SDS011;66794;43.764;10.436;2024-01-25T09:27:38;58.83;;;38.95;;
77625;SDS011;66794;43.764;10.436;2024-01-25T09:30:24;56.00;;;39.20;;
77625;SDS011;66794;43.764;10.436;2024-01-25T09:33:10;58.53;;;39.55;;
77625;SDS011;66794;43.764;10.436;2024-01-25T09:35:55;57.50;;;40.45;;
77625;SDS011;66794;43.764;10.436;2024-01-25T09:38:41;64.97;;;44.80;;
77625;SDS011;66794;43.764;10.436;2024-01-25T09:41:27;69.63;;;40.30;;
77625;SDS011;66794;43.764;10.436;2024-01-25T09:44:12;57.55;;;39.50;;
77625;SDS011;66794;43.764;10.436;2024-01-25T09:46:58;66.55;;;39.83;;
77625;SDS011;66794;43.764;10.436;2024-01-25T09:49:44;59.38;;;41.00;;
77625;SDS011;66794;43.764;10.436;2024-01-25T09:52:30;59.15;;;39.75;;
77625;SDS011;66794;43.764;10.436;2024-01-25T09:55:16;60.70;;;39.55;;
77625;SDS011;66794;43.764;10.436;2024-01-25T09:58:04;58.97;;;39.25;;
77625;SDS011;66794;43.764;10.436;2024-01-25T10:00:53;62.88;;;41.47;;
77625;SDS011;66794;43.764;10.436;2024-01-25T10:03:39;65.70;;;40.78;;
77625;SDS011;66794;43.764;10.436;2024-01-25T10:06:27;84.05;;;53.47;;
77625;SDS011;66794;43.764;10.436;2024-01-25T10:09:13;57.97;;;38.67;;
77625;SDS011;66794;43.764;10.436;2024-01-25T10:11:59;62.83;;;38.00;;
77625;SDS011;66794;43.764;10.436;2024-01-25T10:14:45;61.70;;;39.30;;
77625;SDS011;66794;43.764;10.436;2024-01-25T10:17:31;55.97;;;38.78;;
77625;SDS011;66794;43.764;10.436;2024-01-25T10:20:16;62.30;;;40.03;;
77625;SDS011;66794;43.764;10.436;2024-01-25T10:23:02;55.55;;;38.85;;
77625;SDS011;66794;43.764;10.436;2024-01-25T10:25:48;68.20;;;40.67;;
77625;SDS011;66794;43.764;10.436;2024-01-25T10:28:33;60.17;;;39.65;;
77625;SDS011;66794;43.764;10.436;2024-01-25T10:31:19;55.15;;;38.50;;
77625;SDS011;66794;43.764;10.436;2024-01-25T10:34:05;56.78;;;38.03;;
77625;SDS011;66794;43.764;10.436;2024-01-25T10:36:50;60.15;;;37.15;;
77625;SDS011;66794;43.764;10.436;2024-01-25T10:39:36;62.23;;;42.13;;
77625;SDS011;66794;43.764;10.436;2024-01-25T10:42:22;56.60;;;39.38;;
77625;SDS011;66794;43.764;10.436;2024-01-25T10:45:08;54.65;;;38.22;;
77625;SDS011;66794;43.764;10.436;2024-01-25T10:47:54;57.47;;;38.25;;
77625;SDS011;66794;43.764;10.436;2024-01-25T10:50:40;60.00;;;37.65;;
77625;SDS011;66794;43.764;10.436;2024-01-25T10:53:26;61.67;;;38.88;;
77625;SDS011;66794;43.764;10.436;2024-01-25T10:56:12;61.83;;;39.53;;
77625;SDS011;66794;43.764;10.436;2024-01-25T10:58:59;61.20;;;39.33;;
77625;SDS011;66794;43.764;10.436;2024-01-25T11:01:45;67.20;;;44.17;;
77625;SDS011;66794;43.764;10.436;2024-01-25T11:04:31;65.30;;;47.08;;
77625;SDS011;66794;43.764;10.436;2024-01-25T11:07:16;57.80;;;38.60;;
77625;SDS011;66794;43.764;10.436;2024-01-25T11:10:02;56.63;;;38.90;;
77625;SDS011;66794;43.764;10.436;2024-01-25T11:12:57;61.35;;;39.85;;
77625;SDS011;66794;43.764;10.436;2024-01-25T11:15:44;62.45;;;40.95;;
77625;SDS011;66794;43.764;10.436;2024-01-25T11:18:30;62.38;;;40.25;;
77625;SDS011;66794;43.764;10.436;2024-01-25T11:21:22;62.17;;;38.75;;
77625;SDS011;66794;43.764;10.436;2024-01-25T11:24:15;59.35;;;38.17;;
77625;SDS011;66794;43.764;10.436;2024-01-25T11:27:01;60.72;;;42.92;;
77625;SDS011;66794;43.764;10.436;2024-01-25T11:29:47;62.58;;;38.28;;
77625;SDS011;66794;43.764;10.436;2024-01-25T11:32:33;56.83;;;36.53;;
77625;SDS011;66794;43.764;10.436;2024-01-25T11:35:18;56.40;;;38.60;;
77625;SDS011;66794;43.764;10.436;2024-01-25T11:38:04;58.90;;;36.20;;
77625;SDS011;66794;43.764;10.436;2024-01-25T11:40:50;57.33;;;34.70;;
77625;SDS011;66794;43.764;10.436;2024-01-25T11:43:35;58.30;;;35.88;;
77625;SDS011;66794;43.764;10.436;2024-01-25T11:46:22;54.10;;;36.45;;
77625;SDS011;66794;43.764;10.436;2024-01-25T11:49:07;54.35;;;36.58;;
77625;SDS011;66794;43.764;10.436;2024-01-25T11:51:53;52.05;;;35.13;;
77625;SDS011;66794;43.764;10.436;2024-01-25T11:54:39;51.47;;;34.78;;
77625;SDS011;66794;43.764;10.436;2024-01-25T11:57:25;57.42;;;37.00;;
77625;SDS011;66794;43.764;10.436;2024-01-25T12:00:14;58.50;;;36.45;;
77625;SDS011;66794;43.764;10.436;2024-01-25T12:03:00;58.15;;;35.20;;
77625;SDS011;66794;43.764;10.436;2024-01-25T12:05:46;50.20;;;34.92;;
77625;SDS011;66794;43.764;10.436;2024-01-25T12:08:31;52.90;;;34.80;;
77625;SDS011;66794;43.764;10.436;2024-01-25T12:11:17;58.70;;;35.95;;
77625;SDS011;66794;43.764;10.436;2024-01-25T12:14:04;50.63;;;34.83;;
77625;SDS011;66794;43.764;10.436;2024-01-25T12:16:50;53.55;;;32.58;;
77625;SDS011;66794;43.764;10.436;2024-01-25T12:19:36;46.22;;;30.77;;
77625;SDS011;66794;43.764;10.436;2024-01-25T12:22:21;50.63;;;30.10;;
77625;SDS011;66794;43.764;10.436;2024-01-25T12:25:08;52.80;;;32.50;;
77625;SDS011;66794;43.764;10.436;2024-01-25T12:27:55;44.47;;;29.98;;
77625;SDS011;66794;43.764;10.436;2024-01-25T12:30:40;45.03;;;28.20;;
77625;SDS011;66794;43.764;10.436;2024-01-25T12:33:26;47.47;;;29.38;;
77625;SDS011;66794;43.764;10.436;2024-01-25T12:36:12;41.58;;;28.40;;
77625;SDS011;66794;43.764;10.436;2024-01-25T12:38:57;46.88;;;28.35;;
77625;SDS011;66794;43.764;10.436;2024-01-25T12:41:43;47.10;;;29.40;;
77625;SDS011;66794;43.764;10.436;2024-01-25T12:44:29;45.75;;;29.17;;
77625;SDS011;66794;43.764;10.436;2024-01-25T12:47:14;44.13;;;26.80;;
77625;SDS011;66794;43.764;10.436;2024-01-25T12:50:00;41.38;;;27.08;;
77625;SDS011;66794;43.764;10.436;2024-01-25T12:52:45;39.17;;;26.13;;
77625;SDS011;66794;43.764;10.436;2024-01-25T12:55:31;42.08;;;27.33;;
77625;SDS011;66794;43.764;10.436;2024-01-25T12:58:17;40.78;;;27.08;;
77625;SDS011;66794;43.764;10.436;2024-01-25T13:01:03;41.75;;;25.95;;
77625;SDS011;66794;43.764;10.436;2024-01-25T13:03:48;34.92;;;20.00;;
77625;SDS011;66794;43.764;10.436;2024-01-25T13:06:34;42.50;;;24.80;;
77625;SDS011;66794;43.764;10.436;2024-01-25T13:09:20;38.28;;;23.90;;
77625;SDS011;66794;43.764;10.436;2024-01-25T13:12:06;35.05;;;22.15;;
77625;SDS011;66794;43.764;10.436;2024-01-25T13:14:51;30.45;;;19.90;;
77625;SDS011;66794;43.764;10.436;2024-01-25T13:17:37;34.65;;;22.38;;
77625;SDS011;66794;43.764;10.436;2024-01-25T13:20:23;39.22;;;21.70;;
77625;SDS011;66794;43.764;10.436;2024-01-25T13:23:08;33.28;;;22.08;;
77625;SDS011;66794;43.764;10.436;2024-01-25T13:25:54;32.95;;;19.60;;
77625;SDS011;66794;43.764;10.436;2024-01-25T13:28:40;33.47;;;18.02;;
77625;SDS011;66794;43.764;10.436;2024-01-25T13:31:25;29.63;;;17.63;;
77625;SDS011;66794;43.764;10.436;2024-01-25T13:34:11;33.70;;;17.38;;
77625;SDS011;66794;43.764;10.436;2024-01-25T13:36:56;30.80;;;18.23;;
77625;SDS011;66794;43.764;10.436;2024-01-25T13:39:42;32.33;;;15.45;;
77625;SDS011;66794;43.764;10.436;2024-01-25T13:42:28;31.83;;;15.00;;
77625;SDS011;66794;43.764;10.436;2024-01-25T13:45:14;26.63;;;14.15;;
77625;SDS011;66794;43.764;10.436;2024-01-25T13:47:59;28.95;;;14.20;;
77625;SDS011;66794;43.764;10.436;2024-01-25T13:50:45;22.40;;;13.13;;
77625;SDS011;66794;43.764;10.436;2024-01-25T13:53:31;29.05;;;14.13;;
77625;SDS011;66794;43.764;10.436;2024-01-25T13:56:16;24.15;;;15.98;;
77625;SDS011;66794;43.764;10.436;2024-01-25T13:59:02;31.80;;;17.13;;
77625;SDS011;66794;43.764;10.436;2024-01-25T14:01:47;27.73;;;15.80;;
77625;SDS011;66794;43.764;10.436;2024-01-25T14:04:36;28.65;;;14.80;;
77625;SDS011;66794;43.764;10.436;2024-01-25T14:07:21;28.52;;;18.80;;
77625;SDS011;66794;43.764;10.436;2024-01-25T14:10:07;27.42;;;15.68;;
77625;SDS011;66794;43.764;10.436;2024-01-25T14:12:53;31.73;;;16.38;;
77625;SDS011;66794;43.764;10.436;2024-01-25T14:15:39;29.40;;;14.43;;
77625;SDS011;66794;43.764;10.436;2024-01-25T14:18:26;23.08;;;13.65;;
77625;SDS011;66794;43.764;10.436;2024-01-25T14:21:12;24.35;;;12.85;;
77625;SDS011;66794;43.764;10.436;2024-01-25T14:23:58;24.13;;;12.70;;
77625;SDS011;66794;43.764;10.436;2024-01-25T14:26:44;20.85;;;11.77;;
77625;SDS011;66794;43.764;10.436;2024-01-25T14:29:29;20.88;;;12.27;;
77625;SDS011;66794;43.764;10.436;2024-01-25T14:32:17;28.83;;;14.35;;
77625;SDS011;66794;43.764;10.436;2024-01-25T14:35:05;39.70;;;20.50;;
77625;SDS011;66794;43.764;10.436;2024-01-25T14:37:50;20.10;;;11.95;;
77625;SDS011;66794;43.764;10.436;2024-01-25T14:40:36;25.05;;;12.82;;
77625;SDS011;66794;43.764;10.436;2024-01-25T14:43:21;23.90;;;11.85;;
77625;SDS011;66794;43.764;10.436;2024-01-25T14:46:07;27.67;;;15.27;;
77625;SDS011;66794;43.764;10.436;2024-01-25T14:48:53;33.10;;;16.83;;
77625;SDS011;66794;43.764;10.436;2024-01-25T14:51:38;28.83;;;17.05;;
77625;SDS011;66794;43.764;10.436;2024-01-25T14:54:25;27.73;;;16.52;;
77625;SDS011;66794;43.764;10.436;2024-01-25T14:57:10;33.67;;;16.90;;
77625;SDS011;66794;43.764;10.436;2024-01-25T14:59:57;30.63;;;14.32;;
77625;SDS011;66794;43.764;10.436;2024-01-25T15:02:43;25.90;;;16.63;;
77625;SDS011;66794;43.764;10.436;2024-01-25T15:05:28;29.38;;;16.60;;
77625;SDS011;66794;43.764;10.436;2024-01-25T15:08:14;70.65;;;47.45;;
77625;SDS011;66794;43.764;10.436;2024-01-25T15:10:59;31.35;;;18.23;;
77625;SDS011;66794;43.764;10.436;2024-01-25T15:13:45;45.38;;;22.08;;
77625;SDS011;66794;43.764;10.436;2024-01-25T15:16:31;35.28;;;22.27;;
77625;SDS011;66794;43.764;10.436;2024-01-25T15:19:17;25.13;;;14.43;;
77625;SDS011;66794;43.764;10.436;2024-01-25T15:22:03;23.58;;;12.60;;
77625;SDS011;66794;43.764;10.436;2024-01-25T15:24:49;64.18;;;31.40;;
77625;SDS011;66794;43.764;10.436;2024-01-25T15:27:35;23.67;;;13.60;;
77625;SDS011;66794;43.764;10.436;2024-01-25T15:30:20;25.75;;;14.32;;
77625;SDS011;66794;43.764;10.436;2024-01-25T15:33:06;25.70;;;12.20;;
77625;SDS011;66794;43.764;10.436;2024-01-25T15:35:52;29.23;;;14.00;;
77625;SDS011;66794;43.764;10.436;2024-01-25T15:38:37;25.65;;;12.48;;
77625;SDS011;66794;43.764;10.436;2024-01-25T15:41:23;20.35;;;12.30;;
77625;SDS011;66794;43.764;10.436;2024-01-25T15:44:09;24.90;;;12.48;;
77625;SDS011;66794;43.764;10.436;2024-01-25T15:46:54;24.52;;;13.25;;
77625;SDS011;66794;43.764;10.436;2024-01-25T15:49:40;24.95;;;13.82;;
77625;SDS011;66794;43.764;10.436;2024-01-25T15:52:26;24.75;;;13.45;;
77625;SDS011;66794;43.764;10.436;2024-01-25T15:55:11;22.75;;;13.98;;